createdAt,value
2023-03-31T00:03:03.917Z,63.33
2023-03-31T00:06:58.870Z,63.13
2023-03-31T00:10:48.024Z,63.51
2023-03-31T00:14:37.375Z,63.45
2023-03-31T00:18:28.158Z,63.36
2023-03-31T00:22:18.132Z,63.56
2023-03-31T00:26:08.621Z,63.20
2023-03-31T00:29:58.547Z,63.41
2023-03-31T00:33:47.754Z,63.50
2023-03-31T00:37:37.988Z,63.36
2023-03-31T00:41:24.431Z,63.55
2023-03-31T00:45:07.812Z,63.45
2023-03-31T00:49:06.714Z,63.44
2023-03-31T00:52:57.476Z,63.71
2023-03-31T01:08:57.244Z,64.18
2023-03-31T01:12:45.002Z,64.15
2023-03-31T01:16:32.539Z,64.33
2023-03-31T01:20:22.829Z,64.34
2023-03-31T01:24:13.952Z,64.35
2023-03-31T01:36:55.827Z,64.74
2023-03-31T01:40:57.091Z,64.84
2023-03-31T01:44:58.423Z,64.72
2023-03-31T01:57:09.509Z,64.70
2023-03-31T02:01:07.612Z,64.48
2023-03-31T02:13:02.650Z,64.83
2023-03-31T02:16:51.928Z,65.02
2023-03-31T02:20:40.999Z,65.11
2023-03-31T02:24:30.049Z,65.26
2023-03-31T02:28:24.864Z,65.40
2023-03-31T02:32:26.008Z,65.43
2023-03-31T02:36:15.406Z,65.49
2023-03-31T02:40:06.161Z,65.51
2023-03-31T02:43:55.287Z,65.57
2023-03-31T03:00:22.810Z,65.72
2023-03-31T03:04:13.452Z,65.61
2023-03-31T03:08:26.657Z,65.58
2023-03-31T03:20:35.564Z,65.12
2023-03-31T03:24:24.957Z,65.33
2023-03-31T03:28:13.933Z,65.57
2023-03-31T03:32:03.037Z,65.24
2023-03-31T03:47:58.382Z,64.59
2023-03-31T03:51:46.040Z,64.77
2023-03-31T03:56:03.762Z,64.37
2023-03-31T03:59:52.604Z,64.21
2023-03-31T04:03:41.851Z,64.29
2023-03-31T04:07:29.572Z,64.29
2023-03-31T04:11:09.117Z,64.10
2023-03-31T04:14:47.911Z,63.97
2023-03-31T04:18:25.742Z,63.86
2023-03-31T04:21:34.998Z,63.71
2023-03-31T04:24:58.673Z,63.70
2023-03-31T04:28:47.622Z,63.63
2023-03-31T04:32:31.567Z,63.30
2023-03-31T04:35:20.745Z,63.44
2023-03-31T04:38:33.994Z,63.50
2023-03-31T04:41:45.691Z,63.30
2023-03-31T04:45:14.518Z,63.19
2023-03-31T04:48:34.745Z,62.96
2023-03-31T04:51:53.175Z,63.09
2023-03-31T04:54:51.748Z,63.20
2023-03-31T04:58:24.982Z,63.24
2023-03-31T05:01:27.713Z,63.22
2023-03-31T05:04:26.763Z,63.25
2023-03-31T05:07:41.608Z,63.25
2023-03-31T05:11:20.723Z,63.36
2023-03-31T05:14:45.805Z,63.37
2023-03-31T05:18:05.018Z,63.44
2023-03-31T05:21:48.469Z,63.31
2023-03-31T05:25:27.572Z,63.28
2023-03-31T05:29:17.585Z,63.01
2023-03-31T05:32:54.218Z,62.91
2023-03-31T06:01:42.797Z,59.79
2023-03-31T06:05:08.259Z,60.84
2023-03-31T06:08:01.342Z,63.35
2023-03-31T06:11:38.998Z,62.88
2023-03-31T06:15:27.025Z,61.79
2023-03-31T06:19:14.984Z,60.50
2023-03-31T06:23:01.697Z,60.00
2023-03-31T06:26:50.272Z,58.76
2023-03-31T06:30:37.911Z,59.71
2023-03-31T06:34:14.214Z,61.78
2023-03-31T06:37:56.992Z,63.62
2023-03-31T06:40:43.832Z,62.22
2023-03-31T06:43:23.415Z,61.86
2023-03-31T06:46:03.758Z,61.04
2023-03-31T06:49:36.217Z,60.28
2023-03-31T06:53:03.413Z,59.13
2023-03-31T06:56:33.008Z,59.41
2023-03-31T07:00:22.361Z,61.46
2023-03-31T07:04:10.934Z,63.01
2023-03-31T07:07:38.490Z,61.62
2023-03-31T07:11:26.512Z,60.17
2023-03-31T07:14:53.852Z,59.12
2023-03-31T07:18:42.485Z,59.29
2023-03-31T07:36:44.763Z,59.96
2023-03-31T07:40:24.423Z,59.95
2023-03-31T07:43:15.928Z,61.37
2023-03-31T07:46:03.339Z,62.15
2023-03-31T07:48:37.551Z,63.63
2023-03-31T07:52:08.829Z,63.38
2023-03-31T07:55:57.935Z,61.50
2023-03-31T07:59:47.054Z,60.04
2023-03-31T08:03:09.665Z,58.37
2023-03-31T08:06:48.871Z,58.99
2023-03-31T08:10:17.028Z,60.42
2023-03-31T08:13:37.230Z,61.05
2023-03-31T08:17:15.348Z,61.18
2023-03-31T08:21:02.133Z,61.46
2023-03-31T08:35:29.505Z,57.95
2023-03-31T08:39:07.443Z,58.51
2023-03-31T08:42:42.312Z,59.56
2023-03-31T08:45:56.491Z,59.93
2023-03-31T08:49:01.371Z,59.59
2023-03-31T08:52:39.336Z,59.61
2023-03-31T08:56:24.414Z,59.37
2023-03-31T08:59:55.780Z,59.56
2023-03-31T09:03:22.864Z,58.59
2023-03-31T09:06:56.831Z,58.79
2023-03-31T09:25:13.762Z,59.82
2023-03-31T09:28:41.247Z,58.20
2023-03-31T09:32:09.233Z,57.62
2023-03-31T09:35:58.494Z,57.49
2023-03-31T09:39:21.619Z,59.33
2023-03-31T09:42:07.458Z,58.94
2023-03-31T09:45:01.139Z,59.14
2023-03-31T09:47:46.357Z,59.12
2023-03-31T09:51:37.901Z,58.98
2023-03-31T09:55:07.801Z,59.04
2023-03-31T09:58:35.806Z,58.28
2023-03-31T10:12:09.663Z,57.59
2023-03-31T10:30:23.795Z,56.03
2023-03-31T10:34:13.149Z,55.93
2023-03-31T10:37:41.758Z,56.26
2023-03-31T10:41:16.527Z,56.73
2023-03-31T10:59:08.412Z,59.62
2023-03-31T11:07:14.396Z,55.61
2023-03-31T11:10:25.967Z,55.75
2023-03-31T11:14:28.731Z,55.47
2023-03-31T11:38:00.758Z,49.26
2023-03-31T11:41:37.180Z,48.92
2023-03-31T11:45:23.364Z,49.80
2023-03-31T11:49:16.808Z,50.09
2023-03-31T12:03:53.622Z,44.79
2023-03-31T12:07:35.838Z,44.35
2023-03-31T12:10:52.927Z,43.28
2023-03-31T12:14:34.314Z,43.40
2023-03-31T12:17:55.273Z,44.80
2023-03-31T12:21:29.708Z,44.67
2023-03-31T12:25:02.421Z,44.63
2023-03-31T12:28:34.309Z,45.81
2023-03-31T12:32:03.164Z,47.03
2023-03-31T12:51:30.921Z,52.75
2023-03-31T12:55:17.987Z,51.57
2023-03-31T12:59:25.748Z,50.85
2023-03-31T13:03:04.507Z,51.19
2023-03-31T13:07:31.576Z,52.02
2023-03-31T13:11:32.577Z,52.16
2023-03-31T13:19:16.497Z,54.37
2023-03-31T13:37:51.021Z,59.05
2023-03-31T13:41:31.633Z,61.58
2023-03-31T13:45:11.622Z,62.11
2023-03-31T13:52:00.598Z,58.98
2023-03-31T13:55:18.792Z,57.99
2023-03-31T13:59:05.950Z,57.92
2023-03-31T14:14:31.794Z,58.59
2023-03-31T14:17:52.023Z,58.64
2023-03-31T14:21:30.100Z,58.99
2023-03-31T14:25:17.503Z,58.84
2023-03-31T14:28:59.065Z,58.75
2023-03-31T14:32:20.238Z,59.12
2023-03-31T14:35:08.697Z,58.82
2023-03-31T14:37:43.755Z,59.01
2023-03-31T14:54:57.470Z,58.31
2023-03-31T14:58:39.018Z,58.15
2023-03-31T15:02:21.483Z,58.83
2023-03-31T15:06:09.582Z,58.76
2023-03-31T15:09:32.216Z,59.19
2023-03-31T15:12:55.905Z,59.38
2023-03-31T15:16:21.661Z,58.93
2023-03-31T15:20:00.209Z,59.32
2023-03-31T15:24:04.128Z,59.26
2023-03-31T15:27:58.919Z,58.67
2023-03-31T15:45:35.949Z,57.52
2023-03-31T15:49:15.862Z,57.32
2023-03-31T15:52:05.247Z,56.87
2023-03-31T15:56:05.106Z,56.59
2023-03-31T15:59:56.419Z,56.93
2023-03-31T16:03:34.805Z,57.34
2023-03-31T16:07:04.201Z,57.46
2023-03-31T16:10:51.576Z,57.94
2023-03-31T16:25:42.932Z,59.52
2023-03-31T16:29:10.003Z,59.78
2023-03-31T16:32:53.513Z,59.81
2023-03-31T16:36:27.372Z,60.06
2023-03-31T16:39:48.271Z,60.31
2023-03-31T16:43:27.584Z,60.15
2023-03-31T16:47:17.512Z,60.35
2023-03-31T16:50:48.075Z,60.47
2023-03-31T16:54:36.020Z,60.60
2023-03-31T16:58:23.788Z,60.54
2023-03-31T17:02:14.062Z,60.26
2023-03-31T17:05:24.783Z,60.20
2023-03-31T17:08:39.794Z,60.99
2023-03-31T17:11:56.304Z,61.30
2023-03-31T17:15:41.854Z,61.91
2023-03-31T17:31:20.186Z,61.99
2023-03-31T17:35:09.462Z,61.64
2023-03-31T17:39:01.735Z,61.38
2023-03-31T17:50:57.152Z,60.27
2023-03-31T17:54:49.423Z,60.72
2023-03-31T18:06:55.789Z,60.44
2023-03-31T18:10:43.306Z,60.42
2023-03-31T18:14:31.283Z,60.75
2023-03-31T18:18:40.828Z,61.30
2023-03-31T18:22:30.041Z,61.54
2023-03-31T18:26:08.779Z,61.25
2023-03-31T18:29:58.112Z,61.39
2023-03-31T18:33:46.942Z,62.07
2023-03-31T18:37:37.303Z,62.73
2023-03-31T18:41:29.195Z,61.14
2023-03-31T19:00:52.552Z,63.16
2023-03-31T19:04:42.136Z,61.70
2023-03-31T19:08:31.082Z,59.18
2023-03-31T19:12:20.210Z,58.56
2023-03-31T19:16:10.402Z,60.16
2023-03-31T19:20:00.596Z,61.18
2023-03-31T19:46:52.830Z,67.34
2023-03-31T19:50:41.607Z,70.20
2023-03-31T19:54:30.073Z,72.06
2023-03-31T20:02:10.006Z,72.90
2023-03-31T20:05:21.921Z,73.34
2023-03-31T20:09:10.930Z,72.80
2023-03-31T20:12:54.391Z,72.42
2023-03-31T20:16:38.042Z,72.60
2023-03-31T20:20:26.145Z,71.62
2023-03-31T20:23:08.088Z,70.85
2023-03-31T20:26:36.849Z,70.22
2023-03-31T20:30:26.421Z,69.23
2023-03-31T20:34:15.376Z,68.72
2023-03-31T20:38:04.337Z,68.12
2023-03-31T20:41:53.430Z,66.32
2023-03-31T20:45:25.536Z,65.02
2023-03-31T20:49:14.293Z,63.00
2023-03-31T20:53:03.593Z,61.49
2023-03-31T20:56:53.397Z,60.54
2023-03-31T21:00:07.356Z,60.51
2023-03-31T21:03:56.601Z,60.16
2023-03-31T21:07:39.185Z,60.71
2023-03-31T21:11:29.154Z,60.71
2023-03-31T21:34:41.137Z,59.97
2023-03-31T21:38:30.341Z,61.34
2023-03-31T21:42:19.354Z,63.89
2023-03-31T21:46:08.674Z,62.95
2023-03-31T21:49:57.673Z,62.13
2023-03-31T21:53:46.645Z,61.43
2023-03-31T21:57:34.388Z,60.53
2023-03-31T22:01:23.577Z,60.36
2023-03-31T22:05:16.793Z,60.32
2023-03-31T22:08:52.140Z,60.11
2023-03-31T22:12:41.107Z,60.22
2023-03-31T22:16:30.322Z,59.83
2023-03-31T22:20:19.644Z,59.92
2023-03-31T22:24:08.817Z,60.23
2023-03-31T22:27:57.929Z,60.07
2023-03-31T22:31:48.984Z,60.20
2023-03-31T22:35:39.448Z,60.26
2023-03-31T22:39:09.006Z,60.64
2023-03-31T22:42:20.010Z,60.18
2023-03-31T22:46:09.664Z,60.23
2023-03-31T22:49:59.405Z,60.43
2023-03-31T22:53:29.204Z,60.62
2023-03-31T22:57:18.081Z,60.86
2023-03-31T23:01:07.514Z,61.17
2023-03-31T23:04:56.446Z,61.23
2023-03-31T23:08:45.906Z,61.53
2023-03-31T23:12:34.958Z,61.85
2023-03-31T23:16:24.032Z,62.04
2023-03-31T23:20:12.925Z,62.25
2023-03-31T23:24:01.904Z,62.17
2023-03-31T23:27:51.024Z,61.70
2023-03-31T23:31:40.376Z,61.79
2023-03-31T23:35:29.545Z,62.16
2023-03-31T23:39:18.904Z,62.00
2023-03-31T23:42:57.697Z,62.03
